^^
Datos históricos de la estación: Murcia-Puente Tocinos
Diario Informe para Abril 5, 2019 Unidades:  Ingés    Métrico   Ambas
Diario Semanal Mensual Anual
  Máxima: Mínima: Promedio:
Temperatura: 69.1 °F 58.1 °F 65.5 °F
Punto de rocio: 52.7 °F 38.1 °F 43.5 °F
Humedad: 67.6% 32.9% 46%
Velocidad viento: 15.2mph 2.9mph 9mph
Racha viento: 30mph - -
Viento- - OSO
Presión: 29.9 in 29.7 in -
Precipitación: 0.01 in    
 
 
Tabla de datos para Abril 5, 2019
Hora Temperatura Punto de rocio Presión Viento Velocidad viento Racha viento Humedad Intensidad lluvia(por hora) Nubes
00:04 68.7 °F 46.4 °F 29.7 in SSO 8.3 mph 17 mph 45% 0 in
00:09 68.5 °F 46.2 °F 29.7 in SSO 8.5 mph 15 mph 45% 0 in
00:14 68.4 °F 46.4 °F 29.7 in SSO 7.8 mph 15.6 mph 45.3% 0 in
00:19 68.4 °F 46.6 °F 29.7 in SSO 7.6 mph 16.1 mph 46% 0 in
00:24 68 °F 46.4 °F 29.7 in SSO 8.3 mph 14 mph 46% 0 in
00:29 67.8 °F 46.8 °F 29.7 in SSO 8.5 mph 16.1 mph 47% 0 in
00:34 67.8 °F 46.8 °F 29.7 in SSO 8.1 mph 16 mph 47.1% 0 in
00:39 67.8 °F 47.3 °F 29.7 in SO 8.1 mph 13 mph 48% 0 in
00:44 67.6 °F 47.3 °F 29.7 in SO 7.1 mph 13 mph 48.2% 0 in
00:49 67.3 °F 47.5 °F 29.7 in SSO 6.9 mph 12.7 mph 49% 0 in
00:54 67.3 °F 47.5 °F 29.7 in SSO 6.9 mph 13 mph 49% 0 in
00:59 67.3 °F 47.5 °F 29.7 in SSO 6.9 mph 12 mph 49% 0 in
01:04 67.5 °F 47.5 °F 29.7 in SSO 6.9 mph 11.8 mph 49% 0 in
01:09 67.5 °F 47.7 °F 29.7 in SSO 6.9 mph 12 mph 49% 0 in
01:14 67.5 °F 47.5 °F 29.7 in SSO 6.9 mph 14 mph 48.8% 0 in
01:19 67.6 °F 47.3 °F 29.7 in SSO 6.9 mph 14 mph 48% 0 in
01:24 67.6 °F 47.3 °F 29.7 in SSO 6.9 mph 10.4 mph 48.2% 0 in
01:29 67.5 °F 47.5 °F 29.7 in SSO 6.9 mph 10 mph 48.6% 0 in
01:34 67.6 °F 47.1 °F 29.7 in SSO 6.1 mph 11.5 mph 48% 0 in
01:39 67.8 °F 47.3 °F 29.7 in SSO 5.9 mph 12 mph 48% 0 in
01:44 67.8 °F 47.5 °F 29.7 in Sur 6.7 mph 13.8 mph 48% 0 in
01:49 67.6 °F 47.3 °F 29.7 in SSO 6.9 mph 14 mph 48% 0 in
01:54 67.5 °F 47.7 °F 29.7 in SSO 6.3 mph 11 mph 48.8% 0 in
01:59 67.5 °F 47.7 °F 29.7 in SSO 6.2 mph 9 mph 49% 0 in
02:04 67.3 °F 47.5 °F 29.7 in SSO 4.7 mph 6.9 mph 49.1% 0 in
02:09 66.9 °F 47.7 °F 29.7 in SSO 4.3 mph 10.4 mph 50% 0 in
02:14 66.9 °F 47.7 °F 29.7 in SSO 4.7 mph 12.7 mph 50% 0 in
02:19 66.7 °F 47.5 °F 29.7 in SSO 4.7 mph 13.8 mph 50% 0 in
02:24 66.7 °F 47.7 °F 29.7 in SSO 6.8 mph 14 mph 50.2% 0 in
02:29 66.6 °F 47.8 °F 29.7 in SSO 7.4 mph 13 mph 51% 0 in
02:34 66.6 °F 47.8 °F 29.7 in SSO 7.6 mph 15 mph 51% 0 in
02:39 66.6 °F 47.8 °F 29.7 in SSO 7.6 mph 15 mph 51% 0 in
02:44 66.6 °F 47.8 °F 29.7 in SSO 8.9 mph 15 mph 51% 0 in
02:49 66.4 °F 47.7 °F 29.7 in SSO 9.2 mph 16.1 mph 51% 0 in
02:54 66.6 °F 47.7 °F 29.7 in SSO 8.8 mph 16 mph 50.7% 0 in
02:59 66.7 °F 47.7 °F 29.7 in SSO 8.7 mph 16.1 mph 50% 0 in
03:04 67.1 °F 47.5 °F 29.7 in SSO 9.5 mph 16.1 mph 49.5% 0 in
03:09 67.5 °F 47.5 °F 29.7 in SSO 9.7 mph 16.1 mph 48.6% 0 in
03:14 67.8 °F 47.5 °F 29.7 in SO 9.3 mph 16.8 mph 48% 0 in
03:19 67.8 °F 47.5 °F 29.7 in SO 9.2 mph 17.3 mph 48% 0 in
03:24 67.8 °F 47.3 °F 29.7 in SO 8.3 mph 15.6 mph 48% 0 in
03:29 67.8 °F 47.5 °F 29.7 in SO 8.1 mph 16.1 mph 48% 0 in
03:34 67.8 °F 47.5 °F 29.7 in OSO 8.4 mph 16 mph 48% 0 in
03:39 67.8 °F 47.5 °F 29.7 in OSO 8.5 mph 15 mph 48% 0 in
03:44 67.6 °F 47.5 °F 29.7 in OSO 8.6 mph 15 mph 48.7% 0 in
03:49 67.5 °F 47.7 °F 29.7 in OSO 8.7 mph 15 mph 49% 0 in
03:54 67.5 °F 47.7 °F 29.7 in OSO 8.5 mph 16.1 mph 49% 0 in
03:59 67.5 °F 47.7 °F 29.7 in Oeste 8.5 mph 20.7 mph 49% 0 in
04:04 67.3 °F 48.4 °F 29.7 in ONO 10.3 mph 21 mph 50.8% 0 in
04:09 66.7 °F 49.1 °F 29.7 in ONO 10.7 mph 22.3 mph 53.2% 0 in
04:14 66.2 °F 49.3 °F 29.7 in ONO 11.6 mph 22 mph 54.5% 0 in
04:19 65.8 °F 49.8 °F 29.7 in ONO 11.8 mph 21.9 mph 56.2% 0 in
04:24 65.7 °F 50.4 °F 29.7 in ONO 12.2 mph 22 mph 57.5% 0 in
04:29 65.5 °F 51.1 °F 29.7 in ONO 12.3 mph 18.4 mph 59.8% 0 in
04:34 65.3 °F 51.6 °F 29.7 in ONO 10.3 mph 21.5 mph 61.4% 0 in
04:39 64.9 °F 52 °F 29.7 in ONO 9.7 mph 22 mph 62.8% 0 in
04:44 64.9 °F 52 °F 29.7 in ONO 10.9 mph 22 mph 63% 0 in
04:49 64.8 °F 52.2 °F 29.7 in ONO 11.2 mph 24.2 mph 63.5% 0 in
04:54 64.6 °F 52.5 °F 29.7 in ONO 11.7 mph 24.8 mph 65% 0 in
04:59 64 °F 52.7 °F 29.7 in ONO 11.8 mph 25.3 mph 66.8% 0 in
05:04 63.7 °F 52.5 °F 29.7 in ONO 12.4 mph 20 mph 67% 0 in
05:09 63.5 °F 52.3 °F 29.7 in ONO 12.5 mph 18.4 mph 67% 0 in
05:14 63.3 °F 52 °F 29.7 in ONO 10.7 mph 18 mph 66.4% 0 in
05:19 63.3 °F 51.6 °F 29.7 in ONO 10.2 mph 17.3 mph 65.7% 0 in
05:24 63.3 °F 51.1 °F 29.7 in ONO 10.1 mph 18.4 mph 64.3% 0 in
05:29 63.3 °F 50.4 °F 29.7 in ONO 10 mph 20.7 mph 62.5% 0 in
05:34 63.3 °F 50.2 °F 29.7 in ONO 10.9 mph 21 mph 62% 0 in
05:39 63.1 °F 49.6 °F 29.7 in ONO 11.2 mph 21.3 mph 61.2% 0 in
05:44 63.1 °F 49.5 °F 29.7 in ONO 11.4 mph 21 mph 61% 0 in
05:49 63.1 °F 49.5 °F 29.7 in ONO 11.4 mph 19 mph 61% 0 in
05:54 63.1 °F 49.5 °F 29.8 in ONO 10.4 mph 17.3 mph 61% 0 in
05:59 63.1 °F 49.5 °F 29.8 in ONO 10.2 mph 17 mph 61% 0 in
06:04 63.1 °F 49.5 °F 29.8 in Oeste 9.8 mph 15 mph 61% 0 in
06:09 63.1 °F 49.5 °F 29.8 in Oeste 9.7 mph 14.7 mph 61% 0 in
06:14 63.1 °F 50 °F 29.8 in Oeste 8.9 mph 16.3 mph 62.2% 0 in
06:19 63 °F 50.5 °F 29.8 in OSO 8.7 mph 16 mph 64.1% 0 in
06:24 62.4 °F 51.1 °F 29.8 in OSO 6.9 mph 11 mph 66.2% 0 in
06:29 62.2 °F 51.3 °F 29.8 in SO 6.4 mph 10 mph 67.3% 0 in
06:34 62.2 °F 51.3 °F 29.8 in SSO 4.7 mph 8.1 mph 67.6% 0 in
06:39 62.2 °F 51.1 °F 29.8 in Sur 4.3 mph 8.5 mph 66.9% 0 in
06:44 62.4 °F 51.4 °F 29.8 in Sur 5 mph 9 mph 67% 0 in
06:49 62.8 °F 51.6 °F 29.8 in SSE 5.2 mph 9 mph 67% 0 in
06:54 62.8 °F 51.6 °F 29.8 in SSO 5.3 mph 9.2 mph 66.7% 0 in
06:59 62.8 °F 51.1 °F 29.8 in Sur 5.4 mph 9.7 mph 65.8% 0 in
07:04 62.8 °F 51.3 °F 29.8 in SSO 5.4 mph 10 mph 66% 0 in
07:09 62.8 °F 51.3 °F 29.8 in Sur 5.4 mph 12.7 mph 66.2% 0 in
07:14 62.4 °F 51.3 °F 29.8 in SSO 6 mph 13 mph 66.9% 0 in
07:19 62.2 °F 50.9 °F 29.8 in SO 6.2 mph 12 mph 66.7% 0.01 in
07:24 62.1 °F 50.7 °F 29.8 in SSO 6.3 mph 12.7 mph 66.1% 0.01 in
07:29 62.2 °F 50 °F 29.8 in SSO 6.4 mph 13 mph 64.3% 0.01 in
07:34 62.4 °F 50.2 °F 29.8 in SSO 6.8 mph 13 mph 64.2% 0.01 in
07:39 62.4 °F 50.5 °F 29.8 in SSO 6.9 mph 10.4 mph 65% 0.01 in
07:44 62.4 °F 50.5 °F 29.8 in SSO 6.3 mph 10 mph 65% 0.01 in
07:49 62.2 °F 50.4 °F 29.8 in SSO 6.2 mph 8 mph 64.9% 0.01 in
07:54 62.2 °F 50.4 °F 29.8 in SSO 5.4 mph 7 mph 65% 0.01 in
07:59 62.2 °F 50.2 °F 29.8 in SSO 5.2 mph 7.6 mph 65% 0.01 in
08:04 62.1 °F 49.8 °F 29.8 in Sur 4.8 mph 10.4 mph 64.4% 0.01 in
08:09 62.1 °F 49.3 °F 29.8 in SSO 4.7 mph 10.7 mph 63.1% 0.01 in
08:14 62.1 °F 48.6 °F 29.8 in SSO 6 mph 11.5 mph 61.5% 0.01 in
08:19 62.1 °F 47.8 °F 29.8 in SSO 6.4 mph 13 mph 59.4% 0 in
08:24 62.2 °F 47.8 °F 29.8 in SSO 7.3 mph 13 mph 59.2% 0 in
08:29 62.2 °F 47.7 °F 29.8 in SSO 7.6 mph 15 mph 58.9% 0 in
08:34 62.2 °F 47.3 °F 29.8 in SSO 7.6 mph 15 mph 58% 0 in
08:39 62.4 °F 47.1 °F 29.8 in SO 7.6 mph 13 mph 57.2% 0 in
08:44 62.8 °F 46.9 °F 29.8 in SO 6.6 mph 10.7 mph 56.6% 0 in
08:49 63 °F 46.8 °F 29.8 in OSO 6.4 mph 11.2 mph 55.7% 0 in
08:54 63.1 °F 46 °F 29.8 in OSO 5.6 mph 12 mph 53.8% 0 in
08:59 63.5 °F 45.3 °F 29.8 in OSO 5.4 mph 14 mph 51.6% 0 in
09:04 63.9 °F 44.8 °F 29.8 in Oeste 6.6 mph 17.5 mph 49.9% 0 in
09:09 64 °F 44.4 °F 29.8 in Oeste 6.9 mph 17.5 mph 49% 0 in
09:14 64 °F 44.4 °F 29.8 in Oeste 8.2 mph 19 mph 48.7% 0 in
09:19 64.2 °F 44.1 °F 29.8 in Oeste 8.5 mph 19 mph 48% 0 in
09:24 64.2 °F 43.9 °F 29.8 in Oeste 8.5 mph 17.3 mph 47.5% 0 in
09:29 64.4 °F 43.7 °F 29.8 in Oeste 8.5 mph 20.1 mph 46.8% 0 in
09:34 64.6 °F 43.3 °F 29.8 in Oeste 11.1 mph 23.5 mph 45.9% 0 in
09:39 64.9 °F 42.8 °F 29.8 in ONO 11.8 mph 23.5 mph 44.6% 0 in
09:44 64.9 °F 42.6 °F 29.8 in Oeste 12.2 mph 23 mph 44% 0 in
09:49 65.1 °F 42.3 °F 29.8 in Oeste 12.3 mph 23 mph 43.3% 0 in
09:54 65.1 °F 41.7 °F 29.8 in Oeste 13.4 mph 25.3 mph 42.5% 0 in
09:59 65.1 °F 41.9 °F 29.8 in Oeste 13.7 mph 25.3 mph 42.6% 0 in
10:04 65.5 °F 42.4 °F 29.8 in Oeste 14.4 mph 25 mph 43.1% 0 in
10:09 65.7 °F 42.4 °F 29.8 in Oeste 14.5 mph 20.7 mph 42.9% 0 in
10:14 65.7 °F 42.1 °F 29.8 in Oeste 12.1 mph 23.7 mph 42.3% 0 in
10:19 65.7 °F 41.9 °F 29.8 in Oeste 11.4 mph 24.2 mph 42% 0 in
10:24 65.8 °F 41.9 °F 29.8 in Oeste 11.7 mph 25.3 mph 41.6% 0 in
10:29 65.7 °F 41.4 °F 29.8 in Oeste 11.8 mph 27.6 mph 41% 0 in
10:34 65.7 °F 41.4 °F 29.8 in Oeste 14.5 mph 28 mph 41% 0 in
10:39 65.7 °F 41.2 °F 29.8 in Oeste 15.2 mph 24.6 mph 40.8% 0 in
10:44 65.7 °F 40.8 °F 29.8 in Oeste 14.8 mph 25.3 mph 40.2% 0 in
10:49 65.7 °F 41 °F 29.8 in Oeste 14.7 mph 25 mph 40.4% 0 in
10:54 66 °F 40.6 °F 29.8 in ONO 13 mph 21.5 mph 39.5% 0 in
10:59 66 °F 40.1 °F 29.8 in Oeste 12.5 mph 22 mph 38.8% 0 in
11:04 66 °F 40.3 °F 29.8 in Oeste 12.4 mph 21 mph 39% 0 in
11:09 66.2 °F 40.5 °F 29.8 in Oeste 12.3 mph 20.8 mph 38.9% 0 in
11:14 66.2 °F 40.6 °F 29.8 in Oeste 11.6 mph 21 mph 39.2% 0 in
11:19 66.2 °F 40.5 °F 29.8 in OSO 11.4 mph 23 mph 38.9% 0 in
11:24 66.4 °F 39.7 °F 29.8 in Oeste 12.7 mph 23 mph 37.7% 0 in
11:29 66.6 °F 39.6 °F 29.8 in Oeste 13 mph 22 mph 37.1% 0 in
11:34 66.7 °F 39.6 °F 29.8 in Oeste 12.1 mph 22 mph 37% 0 in
11:39 66.7 °F 39 °F 29.8 in Oeste 11.8 mph 24.6 mph 36.1% 0 in
11:44 66.6 °F 38.8 °F 29.8 in Oeste 12.7 mph 29.7 mph 36% 0 in
11:49 66.4 °F 39 °F 29.8 in Oeste 13 mph 30 mph 36.6% 0 in
11:54 66.6 °F 38.8 °F 29.8 in Oeste 14.7 mph 28.8 mph 36.2% 0 in
11:59 66.4 °F 39 °F 29.8 in Oeste 15.2 mph 29 mph 36.6% 0 in
12:04 66.6 °F 39.4 °F 29.8 in Oeste 15.2 mph 27.6 mph 37% 0 in
12:09 66.7 °F 39.2 °F 29.8 in Oeste 15.2 mph 28 mph 36.4% 0 in
12:14 66.7 °F 39.6 °F 29.8 in Oeste 13.9 mph 26 mph 37% 0 in
12:19 66.9 °F 39.7 °F 29.8 in Oeste 13.5 mph 25.3 mph 37% 0 in
12:24 66.9 °F 39.6 °F 29.8 in ONO 12.2 mph 25 mph 36.8% 0 in
12:29 66.9 °F 39.2 °F 29.8 in OSO 11.8 mph 25.3 mph 36% 0 in
12:34 67.1 °F 39.2 °F 29.8 in Oeste 12.7 mph 25.3 mph 36% 0 in
12:39 67.1 °F 39.7 °F 29.8 in OSO 13 mph 25 mph 36.8% 0 in
12:44 67.5 °F 39.7 °F 29.8 in Oeste 11.7 mph 25.3 mph 36.3% 0 in
12:49 67.1 °F 39.2 °F 29.8 in Oeste 11.4 mph 25.3 mph 36% 0 in
12:54 67.5 °F 39.6 °F 29.8 in ONO 14.5 mph 26.8 mph 36% 0 in
12:59 67.5 °F 39.6 °F 29.8 in ONO 15.2 mph 27.3 mph 36% 0 in
13:04 67.5 °F 39.6 °F 29.8 in ONO 13.8 mph 27 mph 36% 0 in
13:09 67.6 °F 39.7 °F 29.8 in ONO 13.5 mph 25 mph 36% 0 in
13:14 67.8 °F 39.4 °F 29.8 in ONO 12.6 mph 24.2 mph 35.1% 0 in
13:19 67.8 °F 39.2 °F 29.8 in Oeste 12.3 mph 24 mph 35% 0 in
13:24 67.6 °F 39.6 °F 29.8 in Oeste 13.4 mph 21 mph 35.9% 0 in
13:29 67.8 °F 39 °F 29.8 in Oeste 13.7 mph 25.3 mph 34.9% 0 in
13:34 67.6 °F 39 °F 29.8 in Oeste 13.5 mph 25 mph 34.9% 0 in
13:39 67.8 °F 39.2 °F 29.8 in Oeste 13.5 mph 24 mph 35% 0 in
13:44 68 °F 39.4 °F 29.8 in Oeste 13.1 mph 23 mph 35.1% 0 in
13:49 68.2 °F 39.2 °F 29.8 in Oeste 13 mph 25.6 mph 34.6% 0 in
13:54 68.2 °F 38.5 °F 29.8 in Oeste 12.6 mph 26 mph 33.6% 0 in
13:59 68.2 °F 38.5 °F 29.8 in Oeste 12.5 mph 26.8 mph 33.7% 0 in
14:04 68.4 °F 38.7 °F 29.8 in ONO 12.9 mph 27 mph 33.7% 0 in
14:09 68.4 °F 38.5 °F 29.8 in ONO 13 mph 24.2 mph 33.4% 0 in
14:14 68.2 °F 38.1 °F 29.8 in Oeste 12.6 mph 25.3 mph 33.1% 0 in
14:19 67.8 °F 38.1 °F 29.8 in Oeste 12.5 mph 25 mph 33.5% 0 in
14:24 68.2 °F 38.5 °F 29.8 in Oeste 13.3 mph 23 mph 33.7% 0 in
14:29 68.4 °F 38.7 °F 29.8 in Oeste 13.5 mph 24.6 mph 33.6% 0 in
14:34 68.2 °F 38.3 °F 29.8 in ONO 11.7 mph 25 mph 33.5% 0 in
14:39 68.2 °F 38.7 °F 29.8 in Oeste 11.2 mph 24 mph 34% 0 in
14:44 68.2 °F 38.7 °F 29.8 in Oeste 12.6 mph 26.5 mph 34% 0 in
14:49 68.4 °F 38.5 °F 29.8 in Oeste 13 mph 26 mph 33.7% 0 in
14:54 68.5 °F 38.3 °F 29.8 in OSO 13 mph 25.3 mph 33.2% 0 in
14:59 68.7 °F 38.3 °F 29.8 in Oeste 13 mph 25.3 mph 33% 0 in
15:04 68.5 °F 38.3 °F 29.8 in Oeste 12.4 mph 26 mph 33% 0 in
15:09 68.5 °F 38.1 °F 29.8 in Oeste 12.3 mph 28.8 mph 32.9% 0 in
15:14 68.4 °F 38.1 °F 29.8 in OSO 12.3 mph 29 mph 33% 0 in
15:19 68.7 °F 38.5 °F 29.8 in Oeste 12.3 mph 21 mph 33% 0 in
15:24 69.1 °F 38.7 °F 29.8 in Oeste 11.1 mph 21.9 mph 33% 0 in
15:29 68.7 °F 38.5 °F 29.8 in OSO 10.7 mph 24.2 mph 33% 0 in
15:34 68.7 °F 38.8 °F 29.8 in OSO 12.5 mph 24.2 mph 33.4% 0 in
15:39 68.5 °F 38.8 °F 29.8 in OSO 13 mph 26 mph 33.6% 0 in
15:44 68.5 °F 39 °F 29.8 in OSO 13 mph 26 mph 34% 0 in
15:49 68.5 °F 39 °F 29.8 in OSO 13 mph 23 mph 34% 0 in
15:54 68.7 °F 39.2 °F 29.8 in Oeste 12.1 mph 21.9 mph 34% 0 in
15:59 68.7 °F 39.2 °F 29.8 in OSO 11.8 mph 25.3 mph 34% 0 in
16:04 68.7 °F 39.2 °F 29.8 in OSO 12.4 mph 25 mph 34.1% 0 in
16:09 68.7 °F 39.2 °F 29.8 in Oeste 12.5 mph 26.5 mph 34% 0 in
16:14 68.5 °F 39 °F 29.8 in Oeste 13.5 mph 27.6 mph 34% 0 in
16:19 68.4 °F 38.8 °F 29.8 in Oeste 13.7 mph 28 mph 34% 0 in
16:24 68.4 °F 39.4 °F 29.8 in OSO 14.4 mph 26 mph 34.6% 0 in
16:29 68.5 °F 39.7 °F 29.8 in Oeste 14.5 mph 24.2 mph 35% 0 in
16:34 68.5 °F 39.7 °F 29.8 in OSO 12.1 mph 27.6 mph 35% 0 in
16:39 68.4 °F 39.6 °F 29.8 in OSO 11.4 mph 28 mph 35% 0 in
16:44 68.2 °F 39.6 °F 29.8 in Oeste 11.4 mph 21 mph 35% 0 in
16:49 68 °F 39.4 °F 29.8 in Oeste 11.4 mph 20 mph 35.1% 0 in
16:54 68 °F 39.6 °F 29.8 in OSO 11.4 mph 19 mph 35.3% 0 in
16:59 68.2 °F 39.6 °F 29.8 in OSO 11.4 mph 20.8 mph 35% 0 in
17:04 68.2 °F 39.6 °F 29.8 in OSO 11.2 mph 21.9 mph 35% 0 in
17:09 68 °F 39.7 °F 29.8 in OSO 11.2 mph 22 mph 35.5% 0 in
17:14 67.8 °F 39.9 °F 29.8 in Oeste 9.6 mph 14 mph 36% 0 in
17:19 67.6 °F 39.7 °F 29.8 in OSO 9.2 mph 18.4 mph 36.1% 0 in
17:24 67.6 °F 39.7 °F 29.8 in OSO 7.8 mph 20.1 mph 36% 0 in
17:29 67.5 °F 40.3 °F 29.8 in Oeste 7.4 mph 21.5 mph 36.9% 0 in
17:34 67.5 °F 40.3 °F 29.8 in Oeste 10 mph 22 mph 37% 0 in
17:39 67.3 °F 40.3 °F 29.8 in Oeste 10.7 mph 17 mph 37.3% 0 in
17:44 67.3 °F 40.8 °F 29.8 in OSO 8 mph 16.1 mph 38% 0 in
17:49 66.9 °F 40.5 °F 29.8 in Oeste 7.4 mph 16.3 mph 38% 0 in
17:54 66.9 °F 40.5 °F 29.8 in OSO 8.4 mph 16.8 mph 38% 0 in
17:59 66.7 °F 41 °F 29.8 in Oeste 8.7 mph 18.4 mph 39% 0 in
18:04 66.6 °F 40.8 °F 29.8 in OSO 8.7 mph 18 mph 39% 0 in
18:09 66.4 °F 40.6 °F 29.8 in OSO 8.7 mph 23 mph 39% 0 in
18:14 66.2 °F 40.6 °F 29.8 in OSO 8.7 mph 23 mph 39.3% 0 in
18:19 66 °F 41 °F 29.8 in OSO 8.7 mph 15.2 mph 40% 0 in
18:24 65.8 °F 40.8 °F 29.8 in OSO 7.8 mph 15 mph 40.2% 0 in
18:29 65.7 °F 41.4 °F 29.8 in OSO 7.6 mph 13.8 mph 41% 0 in
18:34 65.7 °F 41.4 °F 29.8 in SO 7 mph 14 mph 41% 0 in
18:39 65.7 °F 41.4 °F 29.8 in SO 6.9 mph 12.7 mph 41% 0 in
18:44 65.5 °F 41.2 °F 29.8 in SO 6.3 mph 13 mph 41% 0 in
18:49 65.5 °F 41.2 °F 29.8 in SO 6.2 mph 9.2 mph 41.2% 0 in
18:54 65.3 °F 41.5 °F 29.9 in SO 5.4 mph 11.5 mph 42% 0 in
18:59 64.9 °F 41.4 °F 29.9 in SO 5.2 mph 13.8 mph 42% 0 in
19:04 64.9 °F 41.4 °F 29.9 in SO 6.2 mph 15.2 mph 42% 0 in
19:09 64.9 °F 41.4 °F 29.9 in SO 6.4 mph 15 mph 42% 0 in
19:14 64.9 °F 41.4 °F 29.9 in OSO 8.1 mph 16.1 mph 42% 0 in
19:19 64.9 °F 41.4 °F 29.9 in OSO 8.5 mph 16.3 mph 42% 0 in
19:24 64.8 °F 41.2 °F 29.9 in OSO 8.6 mph 16.1 mph 42% 0 in
19:29 64.6 °F 41.5 °F 29.9 in OSO 8.7 mph 16 mph 42.8% 0 in
19:34 64.4 °F 41.4 °F 29.9 in OSO 6.9 mph 12 mph 43% 0 in
19:39 64.2 °F 41.2 °F 29.9 in OSO 6.4 mph 11 mph 43% 0 in
19:44 64.2 °F 41.2 °F 29.9 in OSO 4.7 mph 8 mph 43% 0 in
19:49 64 °F 41.2 °F 29.9 in SO 4.3 mph 9.7 mph 43% 0 in
19:54 64 °F 41.5 °F 29.9 in SO 5 mph 10 mph 43.7% 0 in
19:59 63.9 °F 41.5 °F 29.9 in SO 5.2 mph 9.2 mph 44% 0 in
20:04 63.9 °F 41.4 °F 29.9 in SO 5.2 mph 9 mph 44% 0 in
20:09 63.7 °F 41.4 °F 29.9 in SO 5.2 mph 8 mph 44% 0 in
20:14 63.7 °F 41.4 °F 29.9 in SO 4.5 mph 7.4 mph 44% 0 in
20:19 63.5 °F 41.2 °F 29.9 in SO 4.3 mph 8.1 mph 44% 0 in
20:24 63.5 °F 41.2 °F 29.9 in SO 5 mph 10.4 mph 44% 0 in
20:29 63.3 °F 41 °F 29.9 in SO 5.2 mph 10.4 mph 44% 0 in
20:34 63.3 °F 41 °F 29.9 in SO 6 mph 10 mph 44% 0 in
20:39 63.3 °F 41 °F 29.9 in SO 6.2 mph 9.7 mph 44% 0 in
20:44 63.3 °F 41 °F 29.9 in SO 6.2 mph 10 mph 44% 0 in
20:49 63.3 °F 41 °F 29.9 in SO 6.2 mph 10.4 mph 44% 0 in
20:54 63.3 °F 40.8 °F 29.9 in SO 6.2 mph 10.4 mph 43.8% 0 in
20:59 63.3 °F 40.5 °F 29.9 in SO 6.2 mph 13 mph 43% 0 in
21:04 63.7 °F 40.8 °F 29.9 in SO 6.8 mph 13 mph 43% 0 in
21:09 63.7 °F 40.8 °F 29.9 in SO 6.9 mph 11 mph 43% 0 in
21:14 63.5 °F 40.6 °F 29.9 in SO 6.3 mph 11.2 mph 43% 0 in
21:19 63.7 °F 40.6 °F 29.9 in SO 6.2 mph 12 mph 43% 0 in
21:24 63.5 °F 40.6 °F 29.9 in SO 6.3 mph 12 mph 43% 0 in
21:29 63.5 °F 40.6 °F 29.9 in SO 6.4 mph 12 mph 43% 0 in
21:34 63.7 °F 40.6 °F 29.9 in OSO 6.3 mph 10 mph 43% 0 in
21:39 63.3 °F 40.5 °F 29.9 in OSO 6.2 mph 10 mph 43% 0 in
21:44 63.1 °F 40.8 °F 29.9 in OSO 5.6 mph 9.2 mph 43.7% 0 in
21:49 63 °F 40.8 °F 29.9 in OSO 5.4 mph 9.2 mph 44% 0 in
21:54 62.8 °F 40.6 °F 29.9 in OSO 4.8 mph 9.2 mph 44% 0 in
21:59 62.6 °F 40.6 °F 29.9 in OSO 4.7 mph 10.4 mph 44.4% 0 in
22:04 62.4 °F 40.8 °F 29.9 in OSO 5.9 mph 10.4 mph 45% 0 in
22:09 62.2 °F 40.6 °F 29.9 in SO 6.2 mph 10.4 mph 45% 0 in
22:14 62.2 °F 40.6 °F 29.9 in OSO 6 mph 10.4 mph 45% 0 in
22:19 62.2 °F 40.6 °F 29.9 in OSO 5.9 mph 10.4 mph 45% 0 in
22:24 62.2 °F 40.6 °F 29.9 in OSO 5.9 mph 10.4 mph 45% 0 in
22:29 62.1 °F 40.5 °F 29.9 in OSO 5.9 mph 10.4 mph 45% 0 in
22:34 62.1 °F 40.5 °F 29.9 in OSO 6.2 mph 11.2 mph 45% 0 in
22:39 62.1 °F 40.5 °F 29.9 in SO 6.2 mph 12 mph 45% 0 in
22:44 62.1 °F 40.5 °F 29.9 in OSO 6.2 mph 12 mph 45% 0 in
22:49 62.1 °F 40.5 °F 29.9 in OSO 6.2 mph 11.8 mph 44.9% 0 in
22:54 62.2 °F 39.9 °F 29.9 in SO 6.2 mph 12 mph 44.1% 0 in
22:59 62.2 °F 39.9 °F 29.9 in SO 6.2 mph 10 mph 44% 0 in
23:04 62.1 °F 40.1 °F 29.9 in OSO 5.5 mph 9 mph 44.3% 0 in
23:09 62.1 °F 40.5 °F 29.9 in ONO 5.4 mph 7.6 mph 44.9% 0 in
23:14 61.3 °F 40.8 °F 29.9 in NNO 4.3 mph 9.2 mph 46.8% 0 in
23:19 60.3 °F 41.2 °F 29.9 in NO 4 mph 9 mph 49.2% 0 in
23:24 59.5 °F 41 °F 29.9 in Oeste 4.2 mph 7 mph 50.2% 0 in
23:29 59.4 °F 41.4 °F 29.9 in Oeste 4.3 mph 7 mph 51% 0 in
23:34 59.4 °F 41.2 °F 29.9 in OSO 3.4 mph 6 mph 51% 0 in
23:39 59.4 °F 41.2 °F 29.9 in Sur 3.1 mph 5 mph 51% 0 in
23:44 59.5 °F 41.4 °F 29.9 in Sur 2.9 mph 5 mph 51% 0 in
23:49 59.5 °F 41.7 °F 29.9 in SSE 2.9 mph 7.6 mph 51.8% 0 in
23:54 58.8 °F 41.5 °F 29.9 in SSE 3.8 mph 8.5 mph 52.7% 0 in
23:59 58.1 °F 41.5 °F 29.9 in Sur 4 mph 9 mph 54% 0 in
Murcia-Puente Tocinos, Espa?a
Compliments of Weather Underground - 3.25 mb

La estación de MeteoMurcia.com, publica sus datos en los siguientes proyectos:

Weather Underground PWS IMURCIAP2 Meteoclimatic www.awekas.at

W3Counter
Web Analytics